Time;durP1;ratioP1;P1;durP2;ratioP2;P2;SDS_P1;SDS_P2;PMS_P1;PMS_P2;Temp;Humidity;BMP_temperature;BMP_pressure;BME280_temperature;BME280_humidity;BME280_pressure;Samples;Min_cycle;Max_cycle;Signal;HPM_P1;HPM_P2
2021/10/28 00:12:53;;;;;;;11.80;9.70;;;;;;;;;;5096351;28;20763;-61
2021/10/28 00:15:28;;;;;;;13.23;10.00;;;;;;;;;;5096570;28;20319;-61
2021/10/28 00:18:07;;;;;;;11.15;9.05;;;;;;;;;;5096203;28;20631;-61
2021/10/28 00:20:36;;;;;;;11.80;9.25;;;;;;;;;;5096047;28;20312;-62
2021/10/28 00:23:03;;;;;;;13.35;9.50;;;;;;;;;;5095995;28;20305;-61
2021/10/28 00:25:31;;;;;;;12.18;9.35;;;;;;;;;;5096267;28;20256;-62
2021/10/28 00:27:59;;;;;;;11.27;10.07;;;;;;;;;;5096207;28;20205;-62
2021/10/28 00:30:27;;;;;;;13.15;10.02;;;;;;;;;;5095787;28;20226;-61
2021/10/28 00:32:55;;;;;;;10.57;9.48;;;;;;;;;;5096211;28;20202;-61
2021/10/28 00:35:23;;;;;;;11.68;9.85;;;;;;;;;;5095763;28;20205;-61
2021/10/28 00:37:51;;;;;;;14.93;10.02;;;;;;;;;;5095703;28;20197;-62
2021/10/28 00:40:18;;;;;;;13.85;10.32;;;;;;;;;;5116127;22;20404;-57
2021/10/28 00:42:46;;;;;;;13.75;10.77;;;;;;;;;;5075763;28;20202;-58
2021/10/28 00:45:13;;;;;;;15.70;10.85;;;;;;;;;;5075581;28;20215;-58
2021/10/28 00:47:41;;;;;;;16.42;10.70;;;;;;;;;;5075408;28;20701;-58
2021/10/28 00:50:10;;;;;;;14.02;11.05;;;;;;;;;;5075104;28;20223;-57
2021/10/28 00:52:39;;;;;;;12.63;11.32;;;;;;;;;;5075576;28;20201;-57
2021/10/28 00:55:07;;;;;;;14.30;11.32;;;;;;;;;;5075161;28;20198;-57
2021/10/28 00:57:34;;;;;;;14.23;10.32;;;;;;;;;;5075126;28;20205;-57
2021/10/28 01:00:04;;;;;;;15.48;10.73;;;;;;;;;;5074964;28;20256;-58
2021/10/28 01:02:31;;;;;;;14.20;11.18;;;;;;;;;;5075134;28;20691;-58
2021/10/28 01:04:59;;;;;;;14.77;10.75;;;;;;;;;;5074980;28;20211;-58
2021/10/28 01:07:27;;;;;;;15.57;12.85;;;;;;;;;;5075149;28;20528;-58
2021/10/28 01:09:55;;;;;;;14.35;12.23;;;;;;;;;;5074823;28;20222;-58
2021/10/28 01:12:23;;;;;;;19.55;10.90;;;;;;;;;;5075272;28;20210;-58
2021/10/28 01:14:50;;;;;;;13.80;12.07;;;;;;;;;;5075697;28;20209;-58
2021/10/28 01:17:17;;;;;;;17.77;11.80;;;;;;;;;;5074999;28;20206;-58
2021/10/28 01:19:45;;;;;;;13.05;10.85;;;;;;;;;;5074868;28;20739;-58
2021/10/28 01:22:14;;;;;;;16.88;13.02;;;;;;;;;;5075600;28;20205;-58
2021/10/28 01:24:41;;;;;;;15.93;12.98;;;;;;;;;;5075066;28;20210;-59
2021/10/28 01:27:09;;;;;;;17.00;12.00;;;;;;;;;;5074914;28;20212;-59
2021/10/28 01:29:37;;;;;;;21.17;14.30;;;;;;;;;;5074959;28;20214;-58
2021/10/28 01:32:05;;;;;;;18.13;13.25;;;;;;;;;;5074448;28;20230;-59
2021/10/28 01:34:33;;;;;;;15.48;12.52;;;;;;;;;;5075893;28;20207;-57
2021/10/28 01:37:01;;;;;;;17.13;12.00;;;;;;;;;;5075687;28;20210;-57
2021/10/28 01:39:29;;;;;;;19.77;12.48;;;;;;;;;;5074360;28;20209;-58
2021/10/28 01:41:57;;;;;;;16.92;12.88;;;;;;;;;;5074061;28;20238;-57
2021/10/28 01:44:27;;;;;;;16.60;10.80;;;;;;;;;;5074487;28;20202;-57
2021/10/28 01:46:54;;;;;;;16.73;11.88;;;;;;;;;;5074233;28;20653;-57
2021/10/28 01:49:25;;;;;;;15.95;11.60;;;;;;;;;;5074235;28;20268;-58
2021/10/28 01:51:54;;;;;;;15.80;10.73;;;;;;;;;;5074308;28;20228;-58
2021/10/28 01:54:22;;;;;;;16.30;11.10;;;;;;;;;;5074306;28;20232;-57
2021/10/28 01:56:51;;;;;;;16.40;11.52;;;;;;;;;;5074558;28;20236;-57
2021/10/28 01:59:18;;;;;;;15.10;12.43;;;;;;;;;;5073957;28;20246;-57
2021/10/28 02:01:46;;;;;;;18.73;11.63;;;;;;;;;;5074271;28;20617;-58
2021/10/28 02:04:13;;;;;;;14.23;12.70;;;;;;;;;;5074309;28;20202;-58
2021/10/28 02:06:41;;;;;;;16.85;11.73;;;;;;;;;;5073766;28;20202;-58
2021/10/28 02:09:08;;;;;;;18.38;12.77;;;;;;;;;;5074183;28;20218;-58
2021/10/28 02:11:36;;;;;;;18.38;12.65;;;;;;;;;;5073255;28;20591;-58
2021/10/28 02:14:05;;;;;;;14.07;11.38;;;;;;;;;;5073662;28;20227;-58
2021/10/28 02:16:33;;;;;;;13.73;12.13;;;;;;;;;;5073957;28;20208;-58
2021/10/28 02:19:01;;;;;;;16.35;12.38;;;;;;;;;;5073746;28;20212;-59
2021/10/28 02:21:28;;;;;;;15.90;12.70;;;;;;;;;;5073504;28;20747;-58
2021/10/28 02:23:56;;;;;;;14.98;12.63;;;;;;;;;;5073833;28;20684;-59
2021/10/28 02:26:25;;;;;;;16.30;12.48;;;;;;;;;;5073941;28;20575;-58
2021/10/28 02:28:52;;;;;;;15.77;11.98;;;;;;;;;;5073740;28;20296;-59
2021/10/28 02:31:21;;;;;;;18.35;13.57;;;;;;;;;;5073581;28;20732;-58
2021/10/28 02:33:48;;;;;;;22.98;13.45;;;;;;;;;;5073453;28;20669;-59
2021/10/28 02:36:17;;;;;;;16.08;12.75;;;;;;;;;;5073672;28;20205;-59
2021/10/28 02:38:44;;;;;;;16.92;13.77;;;;;;;;;;5073686;28;20213;-58
2021/10/28 02:41:12;;;;;;;21.27;13.90;;;;;;;;;;5073345;28;20727;-58
2021/10/28 02:43:40;;;;;;;16.33;12.98;;;;;;;;;;5073526;28;20690;-59
2021/10/28 02:46:07;;;;;;;18.30;13.35;;;;;;;;;;5073674;28;20201;-58
2021/10/28 02:48:36;;;;;;;23.20;14.15;;;;;;;;;;5073474;28;20714;-58
2021/10/28 02:51:03;;;;;;;21.40;14.30;;;;;;;;;;5073098;28;20230;-58
2021/10/28 02:53:30;;;;;;;19.95;15.75;;;;;;;;;;5073452;28;20205;-58
2021/10/28 02:55:58;;;;;;;20.33;15.32;;;;;;;;;;5073050;28;20202;-59
2021/10/28 02:58:25;;;;;;;18.50;14.32;;;;;;;;;;5073403;28;20205;-58
2021/10/28 03:00:52;;;;;;;21.25;15.23;;;;;;;;;;5073064;28;20221;-58
2021/10/28 03:03:20;;;;;;;18.55;16.50;;;;;;;;;;5073325;28;20205;-58
2021/10/28 03:05:49;;;;;;;21.92;17.73;;;;;;;;;;5073441;28;20205;-58
2021/10/28 03:08:16;;;;;;;18.88;15.60;;;;;;;;;;5073341;28;20544;-58
2021/10/28 03:10:44;;;;;;;16.65;13.70;;;;;;;;;;5073228;28;20232;-57
2021/10/28 03:13:15;;;;;;;19.85;16.75;;;;;;;;;;5073237;28;20600;-58
2021/10/28 03:15:42;;;;;;;19.42;15.15;;;;;;;;;;5073207;28;20263;-58
2021/10/28 03:19:07;;;;;;;19.88;14.93;;;;;;;;;;5073152;28;20307;-58
2021/10/28 03:26:36;;;;;;;18.80;15.77;;;;;;;;;;5077023;28;20176;-59
2021/10/28 03:29:03;;;;;;;22.45;16.13;;;;;;;;;;5077951;28;20205;-58
2021/10/28 03:31:30;;;;;;;20.23;16.55;;;;;;;;;;5076978;28;20247;-58
2021/10/28 03:33:58;;;;;;;20.67;15.63;;;;;;;;;;5076784;28;20210;-58
2021/10/28 03:36:41;;;;;;;21.00;14.80;;;;;;;;;;5077344;28;20232;-58
2021/10/28 03:39:16;;;;;;;20.85;16.40;;;;;;;;;;5076942;28;20189;-58
2021/10/28 03:42:02;;;;;;;24.75;15.73;;;;;;;;;;5076471;28;20257;-59
2021/10/28 04:17:20;;;;;;;20.27;17.63;;;;;;;;;;5090529;28;20203;-58
2021/10/28 04:30:47;;;;;;;20.70;16.70;;;;;;;;;;5090663;28;20218;-58
2021/10/28 04:33:15;;;;;;;20.58;15.77;;;;;;;;;;5090283;28;20203;-57
2021/10/28 04:35:42;;;;;;;21.30;17.73;;;;;;;;;;5090249;28;20207;-58
2021/10/28 04:38:10;;;;;;;21.95;16.85;;;;;;;;;;5090693;28;20205;-58
2021/10/28 04:40:39;;;;;;;19.88;17.00;;;;;;;;;;5090549;28;20259;-58
2021/10/28 04:43:06;;;;;;;21.73;16.40;;;;;;;;;;5090507;28;20210;-58
2021/10/28 04:45:34;;;;;;;19.33;15.25;;;;;;;;;;5089889;28;20203;-59
2021/10/28 04:48:01;;;;;;;24.02;19.00;;;;;;;;;;5089693;28;20226;-59
2021/10/28 04:50:28;;;;;;;20.88;16.42;;;;;;;;;;5090954;28;20233;-58
2021/10/28 04:52:56;;;;;;;21.25;16.80;;;;;;;;;;5089823;28;20203;-59
2021/10/28 04:55:23;;;;;;;22.15;18.05;;;;;;;;;;5089882;28;20570;-57
2021/10/28 04:57:52;;;;;;;22.15;16.65;;;;;;;;;;5089972;28;20203;-58
2021/10/28 05:00:19;;;;;;;19.35;15.07;;;;;;;;;;5089915;28;20237;-58
2021/10/28 05:02:47;;;;;;;22.45;16.25;;;;;;;;;;5090000;28;20199;-58
2021/10/28 05:05:14;;;;;;;20.15;16.00;;;;;;;;;;5089941;28;20210;-58
2021/10/28 05:07:41;;;;;;;20.92;16.73;;;;;;;;;;5089303;28;20229;-57
2021/10/28 05:10:09;;;;;;;22.17;16.77;;;;;;;;;;5089636;28;20234;-56
2021/10/28 05:12:36;;;;;;;22.35;16.13;;;;;;;;;;5089781;28;20213;-58
2021/10/28 05:15:05;;;;;;;21.50;16.33;;;;;;;;;;5089750;28;20210;-58
2021/10/28 05:17:33;;;;;;;21.35;16.42;;;;;;;;;;5089325;28;20687;-58
2021/10/28 05:20:00;;;;;;;24.88;17.70;;;;;;;;;;5076581;28;20211;-58
2021/10/28 05:22:27;;;;;;;22.95;17.90;;;;;;;;;;5075798;28;20205;-58
2021/10/28 05:24:55;;;;;;;25.20;17.80;;;;;;;;;;5075478;28;20200;-58
2021/10/28 05:27:22;;;;;;;21.90;16.85;;;;;;;;;;5075674;28;20219;-58
2021/10/28 05:29:49;;;;;;;21.92;16.23;;;;;;;;;;5075667;28;20212;-58
2021/10/28 05:32:18;;;;;;;21.30;16.85;;;;;;;;;;5075394;28;20212;-58
2021/10/28 05:34:48;;;;;;;20.02;17.27;;;;;;;;;;5075198;28;20200;-58
2021/10/28 05:37:15;;;;;;;22.92;16.98;;;;;;;;;;5075721;28;20199;-58
2021/10/28 05:39:42;;;;;;;20.70;16.50;;;;;;;;;;5075619;28;20207;-58
2021/10/28 05:42:10;;;;;;;19.25;16.30;;;;;;;;;;5075576;28;20224;-58
2021/10/28 05:44:37;;;;;;;21.45;17.60;;;;;;;;;;5075134;28;20204;-58
2021/10/28 05:47:05;;;;;;;19.70;15.20;;;;;;;;;;5075282;28;20223;-58
2021/10/28 05:49:34;;;;;;;21.30;17.75;;;;;;;;;;5075223;28;20204;-58
2021/10/28 05:52:01;;;;;;;18.15;15.88;;;;;;;;;;5074643;28;20226;-58
2021/10/28 05:54:28;;;;;;;19.13;16.38;;;;;;;;;;5075395;28;20594;-58
2021/10/28 05:56:56;;;;;;;21.35;16.20;;;;;;;;;;5075217;28;20212;-57
2021/10/28 05:59:23;;;;;;;21.63;17.17;;;;;;;;;;5075197;28;20210;-58
2021/10/28 06:01:50;;;;;;;22.65;17.77;;;;;;;;;;5074908;28;20231;-58
2021/10/28 06:04:18;;;;;;;22.00;17.50;;;;;;;;;;5075477;28;20216;-58
2021/10/28 06:06:46;;;;;;;20.08;16.65;;;;;;;;;;5075099;28;20207;-58
2021/10/28 06:09:14;;;;;;;24.23;16.48;;;;;;;;;;5074994;28;20235;-58
2021/10/28 06:11:41;;;;;;;23.13;17.23;;;;;;;;;;5074968;28;20226;-57
2021/10/28 06:14:08;;;;;;;20.50;17.10;;;;;;;;;;5074648;28;20218;-58
2021/10/28 06:16:41;;;;;;;18.63;15.63;;;;;;;;;;5074587;28;20214;-58
2021/10/28 06:19:08;;;;;;;22.55;16.65;;;;;;;;;;5074590;28;20185;-57
2021/10/28 06:21:35;;;;;;;20.67;15.98;;;;;;;;;;5074853;28;20228;-58
2021/10/28 06:24:04;;;;;;;22.20;16.83;;;;;;;;;;5074238;28;20637;-58
2021/10/28 06:26:31;;;;;;;21.88;17.70;;;;;;;;;;5074633;28;20287;-58
2021/10/28 06:28:59;;;;;;;20.45;16.92;;;;;;;;;;5074501;28;20228;-58
2021/10/28 06:31:26;;;;;;;22.17;17.33;;;;;;;;;;5073347;28;20224;-58
2021/10/28 06:33:59;;;;;;;20.23;17.02;;;;;;;;;;5074619;28;20229;-58
2021/10/28 06:36:27;;;;;;;18.88;16.52;;;;;;;;;;5073977;28;20200;-58
2021/10/28 06:38:54;;;;;;;21.67;15.73;;;;;;;;;;5073972;28;20604;-59
2021/10/28 06:41:23;;;;;;;18.95;16.13;;;;;;;;;;5074446;28;20576;-59
2021/10/28 06:43:50;;;;;;;19.85;15.77;;;;;;;;;;5074424;28;20553;-58
2021/10/28 06:46:17;;;;;;;19.65;15.73;;;;;;;;;;5074576;28;20212;-59
2021/10/28 06:48:45;;;;;;;20.92;16.23;;;;;;;;;;5073617;28;20231;-59
2021/10/28 06:51:12;;;;;;;19.80;16.48;;;8.70;99.90;;;;;;5073874;28;20587;-59
2021/10/28 06:53:46;;;;;;;20.08;15.73;;;;;;;;;;5073577;28;20204;-58
2021/10/28 06:56:36;;;;;;;19.45;15.00;;;;;;;;;;5074073;28;20566;-59
2021/10/28 07:04:37;;;;;;;20.52;14.27;;;;;;;;;;5056436;28;20588;-59
2021/10/28 07:07:04;;;;;;;14.75;13.05;;;;;;;;;;5073755;28;20277;-58
2021/10/28 07:09:33;;;;;;;17.17;14.45;;;;;;;;;;5073739;28;20220;-59
2021/10/28 07:12:10;;;;;;;18.23;14.52;;;8.80;99.90;;;;;;5073753;28;20587;-58
2021/10/28 07:14:41;;;;;;;17.88;15.00;;;9.30;99.90;;;;;;5073907;28;20181;-58
2021/10/28 07:17:17;;;;;;;15.13;13.50;;;9.40;99.90;;;;;;5073374;28;20706;-59
2021/10/28 07:28:56;;;;;;;14.57;12.82;;;9.70;99.90;;;;;;5091183;27;20531;-59
2021/10/28 07:31:36;;;;;;;14.80;12.80;;;9.80;99.90;;;;;;5089692;28;20310;-59
2021/10/28 07:34:11;;;;;;;16.90;12.80;;;9.90;99.90;;;;;;5090404;28;20691;-58
2021/10/28 07:38:10;;;;;;;17.48;13.00;;;;;;;;;;5090497;28;20188;-59
2021/10/28 07:39:57;;;;;;;13.70;12.30;;;10.00;99.90;;;;;;5090322;28;20232;-58
2021/10/28 07:59:22;;;;;;;13.20;10.57;;;10.70;99.90;;;;;;5028238;28;20431;-58
2021/10/28 08:15:57;;;;;;;10.03;9.03;;;11.40;99.90;;;;;;5089905;28;20929;-59
2021/10/28 08:18:43;;;;;;;10.73;9.60;;;11.50;99.90;;;;;;5089530;28;20921;-59
2021/10/28 08:21:26;;;;;;;11.80;9.27;;;11.60;99.90;;;;;;5089612;28;21035;-60
2021/10/28 08:24:02;;;;;;;9.90;8.90;;;11.60;99.90;;;;;;5090003;28;20426;-60
2021/10/28 08:29:21;;;;;;;11.20;8.93;;;11.80;99.90;;;;;;5089677;28;20496;-56
2021/10/28 08:31:49;;;;;;;11.10;9.20;;;11.90;99.90;;;;;;5089545;28;20921;-59
2021/10/28 08:34:21;;;;;;;9.47;8.43;;;12.00;99.90;;;;;;5089506;28;20991;-58
2021/10/28 08:36:51;;;;;;;10.90;9.80;;;12.10;99.90;;;;;;5089239;28;20437;-60
2021/10/28 08:39:18;;;;;;;10.30;9.17;;;12.10;99.90;;;;;;5080693;28;20487;-60
2021/10/28 08:41:46;;;;;;;10.27;9.20;;;12.20;99.90;;;;;;5075734;28;20477;-59
2021/10/28 08:44:15;;;;;;;10.03;8.67;;;12.30;99.90;;;;;;5075548;28;20494;-59
2021/10/28 08:46:45;;;;;;;13.03;9.00;;;12.30;99.90;;;;;;5076031;28;20482;-59
2021/10/28 08:49:18;;;;;;;10.37;9.30;;;12.40;99.90;;;;;;5075836;28;20474;-58
2021/10/28 08:51:55;;;;;;;10.17;9.03;;;12.40;99.90;;;;;;5075983;28;20542;-60
2021/10/28 08:57:40;;;;;;;12.33;9.27;;;12.60;99.90;;;;;;5027673;28;20427;-58
2021/10/28 09:26:32;;;;;;;9.73;8.30;;;13.50;99.90;;;;;;5075440;28;20434;-59
2021/10/28 09:29:10;;;;;;;8.67;7.77;;;13.60;99.90;;;;;;5074889;28;20443;-58
2021/10/28 09:31:40;;;;;;;8.63;7.50;;;13.70;99.90;;;;;;5074806;28;20890;-59
2021/10/28 09:34:24;;;;;;;9.03;8.10;;;13.70;99.90;;;;;;5075143;28;20451;-58
2021/10/28 09:45:33;;;;;;;8.20;7.40;;;14.00;99.90;;;;;;5074645;28;20418;-58
2021/10/28 09:48:10;;;;;;;7.90;6.70;;;14.10;99.90;;;;;;5074116;28;20466;-58
2021/10/28 09:50:50;;;;;;;7.30;6.53;;;14.20;99.90;;;;;;5073423;28;20462;-58
2021/10/28 09:53:27;;;;;;;7.83;7.07;;;14.30;99.90;;;;;;5074887;28;20473;-59
2021/10/28 09:58:40;;;;;;;7.47;6.30;;;14.40;99.60;;;;;;5074374;28;20411;-60
2021/10/28 10:01:11;;;;;;;8.90;6.60;;;14.40;99.30;;;;;;5073935;28;20463;-58
2021/10/28 10:03:38;;;;;;;8.37;6.63;;;14.50;99.00;;;;;;5074583;28;20529;-58
2021/10/28 10:08:49;;;;;;;7.20;6.50;;;14.70;98.10;;;;;;5053208;28;20488;-62
2021/10/28 10:11:21;;;;;;;8.03;6.40;;;14.70;97.90;;;;;;5054669;28;20630;-61
2021/10/28 10:13:50;;;;;;;9.90;7.57;;;14.80;97.60;;;;;;5054645;28;20490;-61
2021/10/28 10:16:17;;;;;;;8.77;7.20;;;14.90;97.30;;;;;;5055871;28;20456;-60
2021/10/28 10:18:49;;;;;;;7.77;6.30;;;15.00;97.00;;;;;;5054428;28;20435;-61
2021/10/28 10:21:27;;;;;;;7.90;6.53;;;15.00;96.60;;;;;;5054593;28;20527;-62
2021/10/28 10:24:24;;;;;;;7.10;6.13;;;15.00;96.30;;;;;;5053951;28;20436;-62
2021/10/28 10:27:55;;;;;;;7.27;6.57;;;15.10;96.00;;;;;;5054105;28;20463;-61
2021/10/28 12:15:32;;;;;;;4.97;4.40;;;16.70;84.80;;;;;;5055473;28;20458;-62
2021/10/28 12:24:09;;;;;;;5.20;3.77;;;16.80;84.00;;;;;;4999460;28;20500;-59
2021/10/28 12:44:20;;;;;;;4.80;4.40;;;16.90;81.40;;;;;;5055624;28;20392;-62
2021/10/28 12:47:21;;;;;;;5.07;3.43;;;16.90;80.90;;;;;;5055365;28;20468;-61
2021/10/28 12:50:23;;;;;;;4.90;4.13;;;16.90;80.90;;;;;;5054754;28;20943;-61
2021/10/28 12:56:08;;;;;;;4.23;3.67;;;17.00;81.00;;;;;;5055306;28;20408;-60
2021/10/28 14:23:56;;;;;;;6.00;3.10;;;16.70;72.00;;;;;;5022827;28;20514;-62
2021/10/28 15:27:53;;;;;;;4.70;3.07;;;15.50;77.60;;;;;;5052938;28;20566;-61
2021/10/28 15:30:28;;;;;;;3.10;2.83;;;15.40;78.40;;;;;;5053398;28;20450;-62
2021/10/28 15:35:42;;;;;;;3.90;2.80;;;15.20;80.30;;;;;;5052844;28;20396;-62
2021/10/28 15:38:20;;;;;;;6.67;3.90;;;15.10;81.40;;;;;;5052836;28;20537;-61
2021/10/28 15:41:06;;;;;;;3.53;3.03;;;15.00;82.40;;;;;;5052654;28;20896;-60
2021/10/28 15:54:55;;;;;;;4.83;3.10;;;14.70;86.30;;;;;;5056388;28;20458;-62
2021/10/28 15:57:27;;;;;;;5.17;3.50;;;14.50;86.90;;;;;;5056219;28;20464;-63
2021/10/28 16:00:12;;;;;;;3.97;3.33;;;14.50;87.70;;;;;;5056782;28;20438;-62
2021/10/28 16:21:55;;;;;;;3.80;3.50;;;13.80;91.20;;;;;;5056892;28;20403;-61
2021/10/28 16:24:24;;;;;;;8.37;7.50;;;13.70;91.50;;;;;;5056774;28;20474;-61
2021/10/28 16:26:52;;;;;;;15.00;10.83;;;13.70;91.80;;;;;;5056869;28;20435;-62
2021/10/28 16:29:20;;;;;;;15.43;13.27;;;13.60;92.00;;;;;;5056784;28;20480;-61
2021/10/28 16:31:48;;;;;;;23.53;18.23;;;13.50;92.20;;;;;;5056695;28;20448;-62
2021/10/28 16:34:18;;;;;;;18.40;14.57;;;13.50;92.50;;;;;;5057347;28;20888;-60
2021/10/28 16:36:47;;;;;;;16.00;14.30;;;13.40;92.60;;;;;;5056394;28;20526;-61
2021/10/28 16:39:16;;;;;;;5.70;4.60;;;13.40;92.80;;;;;;5056609;28;20531;-61
2021/10/28 16:41:47;;;;;;;4.97;4.50;;;13.40;93.00;;;;;;5056440;28;20443;-61
2021/10/28 16:44:16;;;;;;;4.30;3.90;;;13.30;93.10;;;;;;5056441;28;20463;-61
2021/10/28 16:46:44;;;;;;;6.10;4.13;;;13.20;93.30;;;;;;5056358;28;20970;-60
2021/10/28 16:49:13;;;;;;;4.80;4.23;;;13.20;93.50;;;;;;5056003;28;20471;-62
2021/10/28 16:51:42;;;;;;;4.90;4.40;;;13.10;93.60;;;;;;5056956;28;20444;-63
2021/10/28 16:54:10;;;;;;;4.57;4.17;;;13.00;94.00;;;;;;5056207;28;20472;-60
2021/10/28 16:56:37;;;;;;;4.47;3.67;;;13.00;93.90;;;;;;5056400;28;20970;-61
2021/10/28 16:59:05;;;;;;;4.30;3.90;;;12.90;94.00;;;;;;5055668;28;20448;-61
2021/10/28 17:01:32;;;;;;;4.73;3.70;;;12.90;94.20;;;;;;5055892;28;20455;-59
2021/10/28 17:03:59;;;;;;;4.00;3.60;;;12.80;94.40;;;;;;5055483;28;20464;-61
2021/10/28 17:06:26;;;;;;;4.40;4.00;;;12.80;94.70;;;;;;5055790;28;20444;-61
2021/10/28 17:08:56;;;;;;;4.00;3.60;;;12.90;94.50;;;;;;5055871;28;20482;-59
2021/10/28 17:11:26;;;;;;;3.83;3.43;;;12.90;94.40;;;;;;5055814;28;20464;-61
2021/10/28 17:13:56;;;;;;;4.70;3.90;;;12.90;94.20;;;;;;5055379;28;20483;-60
2021/10/28 17:16:23;;;;;;;3.97;3.57;;;12.90;94.10;;;;;;5055485;28;20444;-61
2021/10/28 17:18:50;;;;;;;6.10;3.77;;;12.90;94.10;;;;;;5055646;28;20927;-61
2021/10/28 17:21:17;;;;;;;4.03;3.70;;;12.90;94.10;;;;;;5055522;28;20448;-60
2021/10/28 17:23:48;;;;;;;5.33;3.73;;;12.80;94.00;;;;;;5055405;28;20995;-61
2021/10/28 17:26:17;;;;;;;4.07;3.30;;;12.80;94.10;;;;;;5055167;28;20983;-60
2021/10/28 17:28:45;;;;;;;5.43;3.63;;;;;;;;;;5055933;28;20479;-61
2021/10/28 17:31:12;;;;;;;3.70;3.40;;;;;;;;;;5055575;28;20459;-62
2021/10/28 17:33:40;;;;;;;5.03;3.27;;;;;;;;;;5055116;28;20467;-57
2021/10/28 17:36:07;;;;;;;4.10;3.23;;;;;;;;;;5054975;28;20947;-61
2021/10/28 17:38:35;;;;;;;5.90;4.23;;;;;;;;;;5055505;28;20451;-60
2021/10/28 17:41:04;;;;;;;6.93;4.53;;;;;;;;;;5055526;28;20450;-60
2021/10/28 17:43:35;;;;;;;4.23;3.83;;;;;;;;;;5055121;28;20482;-61
2021/10/28 17:46:06;;;;;;;12.40;5.23;;;;;;;;;;5055503;28;20429;-59
2021/10/28 17:48:33;;;;;;;4.43;4.00;;;;;;;;;;5054698;28;20975;-61
2021/10/28 17:51:01;;;;;;;4.40;3.87;;;;;;;;;;5055159;28;20444;-59
2021/10/28 17:53:28;;;;;;;4.50;4.10;;;;;;;;;;5054382;28;20464;-59
2021/10/28 17:55:55;;;;;;;5.03;4.53;;;;;;;;;;5054275;28;20443;-60
2021/10/28 17:58:23;;;;;;;5.07;4.53;;;;;;;;;;5054553;28;20444;-60
2021/10/28 18:00:52;;;;;;;4.67;4.27;;;;;;;;;;5054259;28;20542;-59
2021/10/28 18:03:21;;;;;;;5.50;5.00;;;;;;;;;;5054103;28;20464;-60
2021/10/28 18:05:48;;;;;;;6.00;4.40;;;;;;;;;;5054460;28;20448;-58
2021/10/28 18:08:16;;;;;;;6.17;4.87;;;;;;;;;;5054164;28;20447;-60
2021/10/28 18:10:44;;;;;;;6.80;5.37;;;;;;;;;;5053386;28;20944;-60
2021/10/28 18:13:12;;;;;;;5.57;4.80;;;;;;;;;;5053546;28;20479;-60
2021/10/28 18:15:40;;;;;;;7.13;5.30;;;;;;;;;;5054668;28;20502;-60
2021/10/28 18:18:09;;;;;;;5.83;4.73;;;;;;;;;;5053662;28;20523;-60
2021/10/28 18:20:37;;;;;;;5.90;4.93;;;;;;;;;;5053641;28;20440;-60
2021/10/28 18:23:04;;;;;;;5.50;4.90;;;;;;;;;;5054058;28;20491;-60
2021/10/28 18:25:32;;;;;;;6.20;4.80;;;;;;;;;;5053770;28;20866;-60
2021/10/28 18:27:59;;;;;;;7.00;4.40;;;;;;;;;;5053802;28;20443;-59
2021/10/28 18:30:28;;;;;;;5.83;5.13;;;;;;;;;;5053511;28;20507;-60
2021/10/28 18:32:56;;;;;;;6.50;5.40;;;;;;;;;;5053692;28;20566;-60
2021/10/28 18:35:25;;;;;;;5.40;4.90;;;;;;;;;;5053437;28;20436;-60
2021/10/28 18:37:52;;;;;;;10.00;5.50;;;;;;;;;;5053490;28;20959;-60
2021/10/28 18:40:19;;;;;;;7.53;5.00;;;;;;;;;;5053584;28;20440;-60
2021/10/28 18:42:48;;;;;;;6.73;5.50;;;;;;;;;;5053647;28;20486;-59
2021/10/28 18:45:16;;;;;;;6.37;5.50;;;;;;;;;;5053675;28;20501;-60
2021/10/28 18:47:44;;;;;;;7.83;6.70;;;;;;;;;;5053712;28;20457;-60
2021/10/28 18:50:11;;;;;;;6.63;5.70;;;;;;;;;;5053480;28;20574;-60
2021/10/28 18:52:41;;;;;;;6.60;5.80;;;;;;;;;;5053164;28;20472;-60
2021/10/28 18:55:08;;;;;;;5.90;5.30;;;;;;;;;;5053243;28;20938;-60
2021/10/28 18:57:36;;;;;;;6.63;5.80;;;;;;;;;;5053265;28;20463;-60
2021/10/28 19:00:04;;;;;;;6.63;5.93;;;;;;;;;;5053328;28;20455;-59
2021/10/28 19:02:33;;;;;;;7.47;6.20;;;;;;;;;;5052924;28;20471;-60
2021/10/28 19:05:02;;;;;;;9.27;6.87;;;;;;;;;;5053334;28;20823;-60
2021/10/28 19:07:30;;;;;;;7.33;5.70;;;;;;;;;;5053028;28;20444;-60
2021/10/28 19:09:59;;;;;;;6.60;5.90;;;;;;;;;;5053239;28;20994;-60
2021/10/28 19:12:26;;;;;;;8.17;5.63;;;;;;;;;;5052691;28;20467;-60
2021/10/28 19:14:54;;;;;;;7.00;5.77;;;;;;;;;;5053280;28;20443;-60
2021/10/28 19:17:22;;;;;;;6.00;5.43;;;;;;;;;;5053278;28;20454;-59
2021/10/28 19:19:50;;;;;;;6.90;5.90;;;;;;;;;;5053140;28;20444;-60
2021/10/28 19:22:17;;;;;;;6.93;6.20;;;;;;;;;;5052702;28;20444;-60
2021/10/28 19:24:45;;;;;;;6.73;5.47;;;;;;;;;;5053115;28;20455;-60
2021/10/28 19:27:13;;;;;;;6.30;5.70;;;;;;;;;;5053045;28;20452;-60
2021/10/28 19:29:47;;;;;;;6.60;6.00;;;;;;;;;;5053277;28;20476;-60
2021/10/28 19:32:18;;;;;;;8.17;6.87;;;;;;;;;;5053059;28;20428;-60
2021/10/28 19:34:46;;;;;;;8.57;7.23;;;;;;;;;;5053078;28;20436;-60
2021/10/28 19:37:17;;;;;;;9.13;7.40;;;;;;;;;;5052829;28;20497;-60
2021/10/28 19:40:03;;;;;;;7.53;6.80;;;;;;;;;;5053092;28;20425;-60
2021/10/28 19:45:25;;;;;;;7.27;6.57;;;;;;;;;;5052798;28;20247;-60
2021/10/28 19:47:53;;;;;;;9.97;7.67;;;;;;;;;;5053047;28;20892;-60
2021/10/28 19:50:20;;;;;;;8.57;7.73;;;;;;;;;;5052766;28;20570;-60
2021/10/28 19:52:48;;;;;;;8.63;7.72;;;;;;;;;;5052450;28;20533;-60
2021/10/28 19:55:17;;;;;;;9.13;8.00;;;;;;;;;;5053083;28;20201;-59
2021/10/28 19:57:50;;;;;;;15.15;8.23;;;;;;;;;;5052610;28;20443;-60
2021/10/28 20:00:23;;;;;;;8.90;8.00;;;;;;;;;;5052724;28;20284;-58
2021/10/28 20:05:51;;;;;;;10.15;8.80;;;;;;;;;;5028437;28;20792;-60
2021/10/28 20:13:11;;;;;;;9.82;8.82;;;;;;;;;;5052886;28;20189;-59
2021/10/28 20:14:19;;;;;;;9.80;8.80;;;;;;;;;;5052163;28;20724;-60
2021/10/28 20:22:17;;;;;;;14.00;9.90;;;;;;;;;;5052285;28;20899;-59
2021/10/28 20:24:44;;;;;;;12.10;9.77;;;;;;;;;;5052467;28;20204;-60
2021/10/28 20:27:11;;;;;;;12.82;10.35;;;;;;;;;;5052506;28;20197;-60
2021/10/28 20:29:40;;;;;;;12.70;10.73;;;;;;;;;;5052467;28;20221;-58
2021/10/28 20:32:08;;;;;;;12.50;11.20;;;;;;;;;;5052461;28;20202;-59
2021/10/28 20:34:37;;;;;;;12.25;10.95;;;;;;;;;;5052990;28;20208;-59
2021/10/28 20:37:08;;;;;;;13.70;10.27;;;;;;;;;;5055925;28;20208;-58
2021/10/28 20:39:37;;;;;;;13.55;10.40;;;;;;;;;;5056336;28;20240;-58
2021/10/28 20:42:05;;;;;;;15.02;12.10;;;;;;;;;;5055788;28;20292;-58
2021/10/28 20:44:33;;;;;;;15.02;11.15;;;;;;;;;;5056141;28;20201;-58
2021/10/28 20:47:02;;;;;;;18.25;13.13;;;;;;;;;;5055804;28;20657;-58
2021/10/28 20:49:30;;;;;;;17.77;12.30;;;;;;;;;;5055659;28;20213;-59
2021/10/28 20:51:57;;;;;;;14.35;12.25;;;;;;;;;;5055866;28;20239;-61
2021/10/28 20:54:25;;;;;;;13.93;12.52;;;;;;;;;;5055862;28;20233;-60
2021/10/28 20:56:53;;;;;;;14.25;12.30;;;;;;;;;;5056017;28;20533;-60
2021/10/28 20:59:20;;;;;;;15.73;12.30;;;;;;;;;;5055944;28;20288;-60
2021/10/28 21:01:48;;;;;;;14.95;12.18;;;;;;;;;;5055797;28;20657;-60
2021/10/28 21:04:16;;;;;;;15.73;12.90;;;;;;;;;;5055324;28;20594;-60
2021/10/28 21:06:44;;;;;;;16.00;14.30;;;;;;;;;;5055816;28;20202;-59
2021/10/28 21:09:11;;;;;;;14.68;13.10;;;;;;;;;;5055693;28;20236;-60
2021/10/28 21:11:39;;;;;;;17.60;14.90;;;;;;;;;;5055316;28;20212;-60
2021/10/28 21:14:07;;;;;;;18.27;15.10;;;;;;;;;;5055008;28;20229;-60
2021/10/28 21:16:35;;;;;;;16.33;14.63;;;;;;;;;;5055453;28;20209;-60
2021/10/28 21:19:02;;;;;;;18.67;16.38;;;;;;;;;;5055416;28;20209;-60
2021/10/28 21:21:32;;;;;;;31.00;23.73;;;;;;;;;;5055101;28;20673;-60
2021/10/28 21:23:59;;;;;;;23.30;18.98;;;;;;;;;;5055151;28;20225;-60
2021/10/28 21:26:27;;;;;;;19.42;16.95;;;;;;;;;;5055505;28;20206;-59
2021/10/28 21:28:54;;;;;;;20.27;17.95;;;;;;;;;;5055103;28;20204;-58
2021/10/28 21:31:21;;;;;;;24.13;18.10;;;;;;;;;;5055019;28;20268;-59
2021/10/28 21:33:49;;;;;;;20.45;16.83;;;;;;;;;;5055144;28;20232;-58
2021/10/28 21:36:16;;;;;;;21.77;18.65;;;;;;;;;;5054976;28;20206;-58
2021/10/28 21:38:45;;;;;;;21.17;18.65;;;;;;;;;;5055423;28;20669;-59
2021/10/28 21:41:12;;;;;;;20.92;18.73;;;;;;;;;;5055137;28;20673;-59
2021/10/28 21:43:39;;;;;;;22.15;18.80;;;;;;;;;;5055337;28;20221;-59
2021/10/28 21:46:07;;;;;;;20.23;18.02;;;;;;;;;;5055247;28;20202;-58
2021/10/28 21:48:34;;;;;;;21.98;18.98;;;;;;;;;;5054693;28;20205;-59
2021/10/28 21:51:04;;;;;;;20.58;18.33;;;;;;;;;;5055061;28;20344;-58
2021/10/28 21:53:35;;;;;;;19.73;17.63;;;;;;;;;;5054752;28;20311;-59
2021/10/28 21:56:14;;;;;;;21.10;18.38;;;;;;;;;;5054462;28;20218;-58
2021/10/28 21:58:54;;;;;;;18.55;16.42;;;;;;;;;;5054817;28;20209;-59
2021/10/28 22:01:33;;;;;;;22.52;19.27;;;;;;;;;;5054723;28;20189;-58
2021/10/28 22:04:22;;;;;;;20.73;17.05;;;;;;;;;;5054411;28;20595;-60
2021/10/28 22:25:51;;;;;;;24.60;17.25;;;;;;;;;;5075139;28;20538;-63
2021/10/28 22:28:18;;;;;;;20.48;16.52;;;;;;;;;;5074326;28;20691;-63
2021/10/28 22:30:47;;;;;;;21.27;17.58;;;;;;;;;;5074486;28;20220;-63